createdAt,value
2022-09-14T00:00:01.392Z,7.47
2022-09-14T00:04:06.112Z,6.00
2022-09-14T00:08:07.932Z,4.10
2022-09-14T00:12:10.292Z,5.95
2022-09-14T00:16:27.017Z,6.32
2022-09-14T00:20:30.488Z,9.07
2022-09-14T00:24:32.489Z,7.93
2022-09-14T00:28:41.540Z,10.15
2022-09-14T00:32:43.152Z,4.90
2022-09-14T00:36:47.331Z,5.43
2022-09-14T00:41:02.041Z,6.05
2022-09-14T00:45:19.070Z,5.55
2022-09-14T00:49:34.268Z,6.50
2022-09-14T00:53:36.077Z,7.32
2022-09-14T00:57:47.328Z,9.82
2022-09-14T01:01:50.068Z,8.23
2022-09-14T01:06:16.975Z,8.95
2022-09-14T01:10:41.480Z,5.45
2022-09-14T01:14:58.008Z,6.18
2022-09-14T01:19:10.340Z,6.82
2022-09-14T01:23:24.805Z,6.50
2022-09-14T01:27:34.084Z,10.32
2022-09-14T01:31:52.831Z,8.95
2022-09-14T01:35:58.453Z,10.50
2022-09-14T01:40:10.343Z,7.65
2022-09-14T01:44:21.535Z,8.02
2022-09-14T01:48:32.961Z,7.10
2022-09-14T01:52:44.195Z,8.27
2022-09-14T01:56:59.586Z,8.30
2022-09-14T02:01:04.104Z,11.93
2022-09-14T02:05:12.878Z,6.68
2022-09-14T02:09:26.267Z,8.10
2022-09-14T02:13:28.516Z,4.75
2022-09-14T02:17:31.179Z,7.22
2022-09-14T02:21:33.527Z,4.28
2022-09-14T02:25:36.438Z,4.60
2022-09-14T02:29:38.517Z,11.82
2022-09-14T02:33:48.069Z,11.27
2022-09-14T02:38:14.163Z,9.32
2022-09-14T02:42:46.366Z,7.87
2022-09-14T02:46:55.473Z,13.73
2022-09-14T02:51:26.174Z,13.10
2022-09-14T02:55:34.230Z,8.32
2022-09-14T02:59:36.034Z,10.48
2022-09-14T03:03:37.728Z,9.38
2022-09-14T03:07:40.384Z,9.93
2022-09-14T03:11:42.038Z,9.07
2022-09-14T03:15:44.399Z,10.50
2022-09-14T03:19:46.050Z,7.97
2022-09-14T03:23:50.223Z,11.32
2022-09-14T03:27:55.907Z,12.00
2022-09-14T03:31:57.759Z,11.05
2022-09-14T03:36:00.104Z,13.60
2022-09-14T03:40:01.972Z,13.25
2022-09-14T03:44:03.668Z,8.80
2022-09-14T03:48:05.874Z,12.15
2022-09-14T03:52:08.013Z,10.30
2022-09-14T03:56:12.602Z,10.52
2022-09-14T04:00:14.469Z,11.05
2022-09-14T04:04:16.383Z,13.10
2022-09-14T04:08:18.033Z,12.15
2022-09-14T04:12:19.639Z,14.15
2022-09-14T04:16:21.825Z,16.12
2022-09-14T04:20:23.518Z,12.05
2022-09-14T04:24:29.483Z,17.52
2022-09-14T04:28:32.833Z,10.95
2022-09-14T04:32:34.763Z,11.10
2022-09-14T04:36:36.591Z,11.88
2022-09-14T04:40:41.426Z,7.78
2022-09-14T04:44:43.094Z,8.80
2022-09-14T04:48:44.969Z,11.07
2022-09-14T04:52:46.563Z,9.80
2022-09-14T04:56:48.181Z,11.40
2022-09-14T05:00:49.875Z,41.70
2022-09-14T05:04:51.510Z,8.65
2022-09-14T05:08:54.149Z,10.23
2022-09-14T05:12:55.840Z,8.65
2022-09-14T05:17:01.196Z,12.95
2022-09-14T05:21:08.583Z,9.27
2022-09-14T05:25:10.335Z,13.50
2022-09-14T05:29:14.199Z,10.50
2022-09-14T05:33:16.017Z,14.60
2022-09-14T05:37:17.630Z,12.07
2022-09-14T05:41:19.298Z,12.18
2022-09-14T05:45:20.922Z,10.18
2022-09-14T05:49:22.546Z,11.68
2022-09-14T05:53:24.132Z,10.93
2022-09-14T05:57:25.794Z,10.35
2022-09-14T06:01:30.884Z,12.57
2022-09-14T06:05:32.544Z,12.10
2022-09-14T06:09:34.422Z,9.63
2022-09-14T06:13:37.383Z,11.48
2022-09-14T06:17:39.124Z,6.78
2022-09-14T06:21:41.431Z,9.77
2022-09-14T06:25:43.050Z,7.18
2022-09-14T06:29:44.734Z,11.40
2022-09-14T06:33:47.643Z,12.25
2022-09-14T06:37:49.246Z,12.13
2022-09-14T06:41:51.936Z,10.68
2022-09-14T06:46:04.989Z,12.93
2022-09-14T06:50:07.063Z,13.18
2022-09-14T06:54:11.435Z,12.18
2022-09-14T06:58:13.710Z,10.77
2022-09-14T07:02:16.615Z,9.45
2022-09-14T07:06:24.082Z,14.98
2022-09-14T07:10:28.049Z,8.85
2022-09-14T07:14:32.369Z,11.30
2022-09-14T07:18:35.710Z,12.35
2022-09-14T07:22:37.352Z,15.02
2022-09-14T07:26:41.655Z,12.18
2022-09-14T07:30:43.289Z,12.63
2022-09-14T07:34:45.211Z,10.63
2022-09-14T07:38:52.531Z,11.93
2022-09-14T07:43:02.960Z,9.05
2022-09-14T07:47:04.988Z,8.15
2022-09-14T07:51:10.206Z,10.93
2022-09-14T07:55:12.359Z,11.10
2022-09-14T07:59:35.061Z,11.98
2022-09-14T08:03:37.343Z,11.38
2022-09-14T08:07:39.192Z,9.00
2022-09-14T08:11:40.783Z,6.82
2022-09-14T08:15:42.416Z,8.32
2022-09-14T08:19:44.014Z,9.70
2022-09-14T08:23:45.775Z,12.75
2022-09-14T08:27:47.451Z,10.88
2022-09-14T08:31:51.450Z,10.90
2022-09-14T08:35:57.908Z,14.60
2022-09-14T08:40:00.013Z,12.55
2022-09-14T08:44:28.054Z,12.18
2022-09-14T08:52:44.575Z,10.98
2022-09-14T08:56:53.273Z,10.60
2022-09-14T09:01:07.565Z,9.65
2022-09-14T09:05:49.893Z,11.18
2022-09-14T09:09:56.036Z,9.40
2022-09-14T09:13:58.976Z,10.57
2022-09-14T09:18:16.916Z,9.45
2022-09-14T09:22:23.260Z,9.70
2022-09-14T09:26:30.831Z,9.68
2022-09-14T09:30:32.603Z,10.25
2022-09-14T09:34:35.715Z,13.10
2022-09-14T09:38:37.411Z,9.02
2022-09-14T09:43:12.166Z,8.85
2022-09-14T09:47:13.986Z,9.18
2022-09-14T09:51:28.080Z,10.13
2022-09-14T09:55:36.584Z,7.97
2022-09-14T09:59:40.951Z,10.25
2022-09-14T10:03:42.949Z,8.65
2022-09-14T10:07:50.415Z,9.50
2022-09-14T10:12:03.354Z,11.73
2022-09-14T10:16:15.119Z,8.73
2022-09-14T10:20:24.718Z,9.70
2022-09-14T10:24:27.185Z,7.60
2022-09-14T10:28:31.732Z,8.35
2022-09-14T10:32:34.534Z,8.00
2022-09-14T10:36:47.864Z,7.45
2022-09-14T10:41:00.250Z,7.18
2022-09-14T10:45:25.970Z,7.40
2022-09-14T10:49:33.496Z,8.52
2022-09-14T10:54:08.358Z,5.82
2022-09-14T10:58:24.785Z,6.07
2022-09-14T11:02:52.280Z,6.50
2022-09-14T11:06:59.736Z,7.97
2022-09-14T11:15:30.311Z,8.02
2022-09-14T11:19:51.264Z,10.05
2022-09-14T11:23:58.591Z,5.85
2022-09-14T11:32:37.247Z,13.48
2022-09-14T11:37:01.122Z,5.65
2022-09-14T11:41:32.210Z,6.78
2022-09-14T11:45:47.259Z,6.12
2022-09-14T11:50:01.687Z,3.85
2022-09-14T11:54:09.427Z,5.15
2022-09-14T11:58:21.527Z,8.55
2022-09-14T12:02:23.201Z,2.22
2022-09-14T12:06:30.808Z,2.50
2022-09-14T12:10:59.152Z,3.80
2022-09-14T12:15:01.935Z,3.33
2022-09-14T12:19:03.877Z,4.37
2022-09-14T12:23:42.232Z,4.05
2022-09-14T12:31:49.464Z,5.37
2022-09-14T12:35:51.087Z,4.50
2022-09-14T12:40:22.938Z,4.87
2022-09-14T12:44:38.414Z,5.50
2022-09-14T12:48:46.365Z,3.12
2022-09-14T12:52:57.403Z,4.18
2022-09-14T12:57:25.160Z,5.20
2022-09-14T13:01:49.880Z,3.55
2022-09-14T13:05:51.722Z,3.53
2022-09-14T13:09:55.483Z,3.40
2022-09-14T13:13:58.537Z,7.62
2022-09-14T13:18:03.421Z,6.15
2022-09-14T13:22:18.574Z,6.57
2022-09-14T13:26:25.051Z,4.50
2022-09-14T13:30:28.867Z,4.93
2022-09-14T13:34:34.593Z,4.57
2022-09-14T13:38:37.473Z,3.10
2022-09-14T13:42:40.884Z,2.67
2022-09-14T13:46:43.112Z,6.65
2022-09-14T13:50:48.885Z,1.83
2022-09-14T13:54:53.851Z,2.62
2022-09-14T13:59:18.181Z,4.00
2022-09-14T14:03:32.951Z,3.90
2022-09-14T14:07:36.266Z,4.35
2022-09-14T14:11:41.567Z,3.85
2022-09-14T14:15:44.044Z,3.40
2022-09-14T14:19:46.145Z,3.97
2022-09-14T14:24:09.595Z,4.82
2022-09-14T14:28:22.675Z,3.42
2022-09-14T14:32:24.724Z,3.28
2022-09-14T14:36:26.422Z,3.60
2022-09-14T14:40:28.214Z,3.92
2022-09-14T14:44:30.163Z,5.07
2022-09-14T14:48:31.803Z,3.10
2022-09-14T14:52:33.413Z,2.17
2022-09-14T14:56:35.171Z,3.83
2022-09-14T15:00:38.326Z,6.65
2022-09-14T15:04:39.957Z,4.07
2022-09-14T15:08:42.122Z,10.55
2022-09-14T15:12:44.192Z,5.12
2022-09-14T15:16:46.439Z,4.95
2022-09-14T15:20:48.194Z,5.47
2022-09-14T15:24:49.934Z,5.82
2022-09-14T15:28:52.347Z,8.23
2022-09-14T15:32:54.042Z,3.78
2022-09-14T15:36:57.339Z,3.15
2022-09-14T15:40:58.959Z,3.28
2022-09-14T15:45:00.608Z,4.72
2022-09-14T15:49:07.812Z,5.20
2022-09-14T15:53:11.104Z,6.00
2022-09-14T15:57:13.324Z,3.17
2022-09-14T16:01:17.112Z,4.47
2022-09-14T16:05:18.895Z,3.95
2022-09-14T16:09:22.334Z,5.05
2022-09-14T16:13:24.231Z,6.32
2022-09-14T16:17:25.859Z,2.05
2022-09-14T16:21:27.866Z,4.60
2022-09-14T16:25:29.463Z,5.00
2022-09-14T16:29:31.067Z,3.65
2022-09-14T16:33:37.237Z,4.93
2022-09-14T16:37:38.795Z,4.05
2022-09-14T16:41:42.047Z,4.68
2022-09-14T16:45:43.694Z,4.05
2022-09-14T16:49:45.343Z,4.62
2022-09-14T16:53:48.164Z,6.20
2022-09-14T16:57:49.920Z,6.07
2022-09-14T17:01:54.699Z,5.28
2022-09-14T17:06:05.115Z,6.93
2022-09-14T17:10:06.948Z,5.12
2022-09-14T17:14:13.678Z,6.35
2022-09-14T17:18:15.292Z,8.52
2022-09-14T17:22:16.867Z,10.00
2022-09-14T17:26:20.046Z,10.55
2022-09-14T17:30:21.673Z,11.60
2022-09-14T17:34:23.366Z,12.82
2022-09-14T17:38:28.007Z,9.65
2022-09-14T17:42:29.621Z,11.00
2022-09-14T17:46:31.554Z,11.38
2022-09-14T17:50:33.633Z,19.73
2022-09-14T17:54:35.434Z,18.98
2022-09-14T17:58:37.539Z,16.08
2022-09-14T18:02:39.222Z,17.33
2022-09-14T18:06:43.631Z,20.42
2022-09-14T18:10:45.465Z,22.58
2022-09-14T18:14:47.231Z,20.98
2022-09-14T18:18:49.370Z,19.80
2022-09-14T18:22:51.058Z,18.30
2022-09-14T18:26:52.915Z,21.85
2022-09-14T18:31:02.136Z,20.75
2022-09-14T18:35:04.334Z,20.05
2022-09-14T18:39:05.982Z,20.00
2022-09-14T18:43:07.665Z,16.83
2022-09-14T18:47:09.314Z,21.90
2022-09-14T18:51:12.843Z,22.02
2022-09-14T18:55:15.087Z,20.88
2022-09-14T18:59:16.746Z,21.60
2022-09-14T19:03:18.340Z,19.60
2022-09-14T19:07:19.943Z,21.40
2022-09-14T19:11:26.993Z,17.55
2022-09-14T19:15:32.045Z,22.33
2022-09-14T19:19:34.414Z,18.85
2022-09-14T19:23:36.779Z,22.98
2022-09-14T19:27:38.382Z,25.27
2022-09-14T19:31:39.979Z,24.17
2022-09-14T19:35:41.655Z,19.67
2022-09-14T19:39:43.417Z,22.02
2022-09-14T19:43:45.174Z,21.80
2022-09-14T19:47:46.827Z,20.15
2022-09-14T19:51:48.964Z,19.70
2022-09-14T19:55:50.600Z,23.67
2022-09-14T19:59:52.373Z,21.00
2022-09-14T20:03:54.864Z,23.52
2022-09-14T20:07:56.563Z,18.62
2022-09-14T20:11:58.182Z,24.90
2022-09-14T20:15:59.993Z,24.50
2022-09-14T20:20:01.911Z,28.95
2022-09-14T20:24:15.714Z,18.70
2022-09-14T20:28:18.946Z,18.77
2022-09-14T20:32:20.600Z,20.00
2022-09-14T20:36:24.967Z,20.12
2022-09-14T20:40:27.151Z,18.15
2022-09-14T20:44:28.923Z,17.75
2022-09-14T20:48:31.011Z,22.30
2022-09-14T20:52:32.665Z,18.30
2022-09-14T20:56:35.494Z,17.62
2022-09-14T21:00:37.101Z,17.60
2022-09-14T21:04:38.798Z,17.33
2022-09-14T21:08:41.784Z,18.52
2022-09-14T21:12:43.498Z,18.12
2022-09-14T21:16:48.353Z,17.10
2022-09-14T21:20:49.984Z,21.23
2022-09-14T21:24:51.607Z,20.73
2022-09-14T21:28:58.015Z,17.65
2022-09-14T21:32:59.725Z,16.40
2022-09-14T21:37:01.475Z,20.15
2022-09-14T21:41:06.166Z,16.70
2022-09-14T21:45:08.314Z,18.73
2022-09-14T21:49:14.739Z,19.87
2022-09-14T21:53:16.334Z,17.77
2022-09-14T21:57:18.175Z,15.93
2022-09-14T22:01:21.502Z,14.30
2022-09-14T22:05:23.222Z,14.05
2022-09-14T22:09:28.662Z,14.38
2022-09-14T22:13:30.463Z,16.15
2022-09-14T22:17:32.751Z,14.35
2022-09-14T22:21:36.795Z,19.10
2022-09-14T22:25:39.871Z,13.13
2022-09-14T22:29:41.605Z,16.05
2022-09-14T22:33:43.505Z,15.55
2022-09-14T22:37:45.175Z,16.62
2022-09-14T22:41:46.878Z,16.02
2022-09-14T22:45:48.724Z,16.15
2022-09-14T22:49:52.451Z,19.73
2022-09-14T22:53:54.293Z,17.12
2022-09-14T22:57:55.903Z,15.85
2022-09-14T23:01:57.624Z,18.20
2022-09-14T23:05:59.756Z,15.63
2022-09-14T23:10:01.482Z,17.73
2022-09-14T23:14:03.802Z,15.70
2022-09-14T23:18:06.369Z,16.55
2022-09-14T23:22:07.999Z,14.02
2022-09-14T23:26:11.734Z,18.67
2022-09-14T23:30:13.623Z,20.00
2022-09-14T23:34:15.681Z,18.00
2022-09-14T23:38:17.375Z,16.98
2022-09-14T23:42:18.992Z,15.82
2022-09-14T23:46:21.520Z,24.73
2022-09-14T23:50:23.207Z,18.05
2022-09-14T23:54:24.806Z,22.02
2022-09-14T23:58:26.607Z,17.80
